Time;durP1;ratioP1;P1;durP2;ratioP2;P2;SDS_P1;SDS_P2;PMS_P1;PMS_P2;Temp;Humidity;BMP_temperature;BMP_pressure;BME280_temperature;BME280_humidity;BME280_pressure;Samples;Min_cycle;Max_cycle;Signal;HPM_P1;HPM_P2
2022/07/14 00:03:33;;;;;;;48.77;45.57;;;;;;;20.27;100.00;102122.27;2003998;71;31416;-74
2022/07/14 00:09:22;;;;;;;50.97;47.43;;;;;;;20.18;100.00;102117.96;2006532;71;31422;-74
2022/07/14 00:15:09;;;;;;;50.30;46.83;;;;;;;19.71;100.00;102118.52;2011734;71;31532;-74
2022/07/14 00:20:53;;;;;;;51.30;47.50;;;;;;;19.70;100.00;102123.31;2018601;71;30907;-74
2022/07/14 00:26:39;;;;;;;51.30;47.73;;;;;;;19.54;100.00;102124.23;1997163;71;30891;-76
2022/07/14 00:32:26;;;;;;;49.10;45.67;;;;;;;19.36;100.00;102119.51;2015391;71;31536;-76
2022/07/14 00:38:12;;;;;;;48.57;45.37;;;;;;;19.30;100.00;102112.86;2000370;71;30903;-76
2022/07/14 00:43:56;;;;;;;48.93;45.73;;;;;;;18.84;100.00;102113.78;1999193;71;31366;-75
2022/07/14 00:49:41;;;;;;;46.87;43.77;;;;;;;18.83;100.00;102118.31;2011680;71;30906;-75
2022/07/14 00:55:25;;;;;;;46.53;43.73;;;;;;;18.80;100.00;102117.53;2015014;71;32953;-76
2022/07/14 01:01:10;;;;;;;47.47;44.27;;;;;;;18.77;100.00;102112.53;2000655;71;30825;-76
2022/07/14 01:06:54;;;;;;;46.00;43.17;;;;;;;18.55;100.00;102117.42;1998732;71;31412;-76
2022/07/14 01:12:44;;;;;;;46.90;44.00;;;;;;;18.49;100.00;102106.78;2017140;71;30917;-74
2022/07/14 01:18:26;;;;;;;47.13;44.17;;;;;;;18.47;100.00;102127.38;2002626;71;30830;-76
2022/07/14 01:24:10;;;;;;;44.70;41.60;;;;;;;18.33;100.00;102118.05;2017028;71;31004;-76
2022/07/14 01:29:55;;;;;;;43.87;41.27;;;;;;;18.29;100.00;102124.59;2016869;71;32903;-76
2022/07/14 01:35:39;;;;;;;38.50;36.23;;;;;;;18.31;100.00;102126.53;2009118;70;31206;-75
2022/07/14 01:41:24;;;;;;;38.47;36.07;;;;;;;18.25;100.00;102125.77;2007862;71;30941;-75
2022/07/14 01:47:09;;;;;;;38.80;36.40;;;;;;;18.12;100.00;102131.60;1991697;71;32836;-75
2022/07/14 01:52:55;;;;;;;37.23;35.07;;;;;;;18.09;100.00;102134.20;1995411;71;30995;-74
2022/07/14 01:58:40;;;;;;;36.90;34.80;;;;;;;17.84;100.00;102135.98;2006434;71;32864;-74
2022/07/14 02:04:27;;;;;;;37.60;35.40;;;;;;;17.76;100.00;102125.42;2006092;71;33365;-75
2022/07/14 02:16:14;;;;;;;33.10;30.97;;;;;;;17.52;100.00;102126.25;1999079;71;33264;-75
2022/07/14 02:21:59;;;;;;;29.33;27.63;;;;;;;17.48;100.00;102118.16;2011522;71;31052;-74
2022/07/14 02:27:43;;;;;;;28.50;26.70;;;;;;;17.51;100.00;102118.95;2013584;71;33381;-73
2022/07/14 02:33:28;;;;;;;27.77;26.03;;;;;;;17.27;100.00;102121.80;2002747;71;32823;-74
2022/07/14 02:39:13;;;;;;;27.97;26.47;;;;;;;17.31;100.00;102127.65;1998815;71;32807;-74
2022/07/14 02:48:22;;;;;;;27.43;25.73;;;;;;;17.25;100.00;102126.86;2015003;70;33306;-74
2022/07/14 02:54:06;;;;;;;24.60;23.30;;;;;;;17.39;100.00;102120.52;1995433;71;32846;-74
2022/07/14 02:59:51;;;;;;;26.30;24.70;;;;;;;17.33;100.00;102131.57;2013523;71;32832;-73
2022/07/14 03:05:36;;;;;;;26.43;24.87;;;;;;;17.08;100.00;102131.28;2009947;71;30875;-75
2022/07/14 03:11:21;;;;;;;27.57;25.97;;;;;;;17.13;100.00;102129.26;2017481;71;32836;-75
2022/07/14 03:17:06;;;;;;;26.80;25.20;;;;;;;17.37;100.00;102141.08;2003164;71;33269;-73
2022/07/14 03:22:50;;;;;;;25.30;23.80;;;;;;;17.86;100.00;102132.28;2011570;71;30886;-74
2022/07/14 03:28:35;;;;;;;26.17;24.87;;;;;;;17.74;100.00;102129.36;2017022;71;32861;-73
2022/07/14 03:34:23;;;;;;;24.87;23.10;;;;;;;17.68;100.00;102128.31;2011699;71;31397;-75
2022/07/14 03:40:10;;;;;;;24.33;23.13;;;;;;;17.95;100.00;102130.46;1991556;71;33361;-76
2022/07/14 03:45:55;;;;;;;23.53;22.13;;;;;;;17.87;100.00;102129.74;1995085;71;32978;-77
2022/07/14 03:51:43;;;;;;;23.43;22.20;;;;;;;17.36;100.00;102137.98;2001399;71;32913;-77
2022/07/14 03:57:28;;;;;;;25.60;23.90;;;;;;;17.17;100.00;102142.97;2004340;71;32837;-76
2022/07/14 04:03:12;;;;;;;25.50;24.20;;;;;;;17.00;100.00;102150.18;1978403;72;33491;-75
2022/07/14 04:08:57;;;;;;;26.87;25.07;;;;;;;16.75;100.00;102150.72;2002607;71;32812;-76
2022/07/14 04:14:42;;;;;;;26.13;24.67;;;;;;;16.69;100.00;102165.91;2005817;71;33364;-75
2022/07/14 04:20:27;;;;;;;25.60;24.10;;;;;;;16.72;100.00;102170.95;1998958;71;32751;-75
2022/07/14 04:26:11;;;;;;;26.50;24.90;;;;;;;16.77;100.00;102167.27;2002637;71;32775;-74
2022/07/14 04:31:56;;;;;;;26.50;25.00;;;;;;;16.73;100.00;102174.01;1993721;71;32821;-76
2022/07/14 04:37:40;;;;;;;26.93;25.53;;;;;;;16.67;100.00;102181.38;2010016;71;33393;-75
2022/07/14 04:43:26;;;;;;;27.20;25.63;;;;;;;16.40;100.00;102167.81;2013208;71;32944;-75
2022/07/14 04:55:12;;;;;;;27.20;25.60;;;;;;;16.53;100.00;102167.15;2011649;71;32739;-75
2022/07/14 05:00:58;;;;;;;28.30;26.50;;;;;;;16.48;100.00;102168.59;2004772;71;32905;-75
2022/07/14 05:06:46;;;;;;;27.50;26.00;;;;;;;16.51;100.00;102161.57;2004612;71;33375;-75
2022/07/14 05:12:30;;;;;;;28.30;26.70;;;;;;;16.63;100.00;102157.28;1997022;71;32865;-76
2022/07/14 05:18:15;;;;;;;27.23;25.77;;;;;;;16.76;100.00;102153.80;2011860;71;32867;-75
2022/07/14 05:24:00;;;;;;;27.80;26.00;;;;;;;16.71;100.00;102149.63;2000238;71;32894;-75
2022/07/14 05:29:44;;;;;;;27.43;25.73;;;;;;;16.84;100.00;102154.56;2009563;71;32806;-75
2022/07/14 05:35:29;;;;;;;26.30;24.80;;;;;;;17.05;100.00;102156.59;2002157;71;32860;-76
2022/07/14 05:41:14;;;;;;;25.67;24.00;;;;;;;16.97;100.00;102164.81;1999008;71;32898;-74
2022/07/14 05:46:59;;;;;;;25.87;24.37;;;;;;;17.17;100.00;102161.78;2014736;71;32837;-75
2022/07/14 05:52:43;;;;;;;25.80;24.30;;;;;;;17.26;100.00;102167.02;2004094;71;32902;-75
2022/07/14 05:58:28;;;;;;;26.53;24.93;;;;;;;17.10;100.00;102166.92;1998992;71;33327;-73
2022/07/14 06:04:12;;;;;;;27.23;25.40;;;;;;;17.35;100.00;102172.25;1995309;71;33308;-76
2022/07/14 06:10:01;;;;;;;25.40;23.80;;;;;;;17.46;100.00;102175.77;2000284;70;32904;-75
2022/07/14 06:15:46;;;;;;;25.80;24.20;;;;;;;17.59;100.00;102182.94;2008139;71;33359;-75
2022/07/14 06:21:30;;;;;;;25.43;23.77;;;;;;;17.62;100.00;102184.33;2009443;71;33045;-75
2022/07/14 06:27:15;;;;;;;25.70;24.40;;;;;;;17.66;100.00;102192.43;2003773;70;33374;-72
2022/07/14 06:33:00;;;;;;;28.87;27.27;;;;;;;17.89;100.00;102194.91;1980122;72;33100;-74
2022/07/14 06:38:46;;;;;;;30.20;28.20;;;;;;;17.89;100.00;102194.91;1991617;70;31365;-74
2022/07/14 06:44:31;;;;;;;25.90;24.17;;;;;;;18.07;100.00;102209.01;2011885;71;31391;-75
2022/07/14 06:50:15;;;;;;;23.50;22.20;;;;;;;18.09;100.00;102208.72;2015230;71;33341;-74
2022/07/14 06:55:59;;;;;;;25.50;24.03;;;;;;;18.28;100.00;102213.77;2013091;71;32822;-74
2022/07/14 07:01:44;;;;;;;24.97;23.47;;;;;;;18.50;100.00;102208.93;2016952;71;33333;-75
2022/07/14 07:07:31;;;;;;;23.13;21.57;;;;;;;18.60;100.00;102208.81;2008122;71;31380;-73
2022/07/14 07:13:15;;;;;;;24.17;22.97;;;;;;;18.42;100.00;102225.94;2000768;71;30868;-76
2022/07/14 07:19:00;;;;;;;24.10;22.80;;;;;;;18.68;100.00;102208.11;2001038;71;33280;-71
2022/07/14 07:24:44;;;;;;;22.30;21.00;;;;;;;18.98;100.00;102214.62;2013273;71;30905;-69
2022/07/14 07:30:28;;;;;;;22.40;21.00;;;;;;;18.91;100.00;102216.98;2016605;71;30958;-71
2022/07/14 07:36:13;;;;;;;19.67;18.67;;;;;;;19.29;100.00;102216.88;2013217;71;30977;-73
2022/07/14 07:42:00;;;;;;;19.63;18.47;;;;;;;19.37;100.00;102217.00;2007651;71;31559;-75
2022/07/14 07:47:44;;;;;;;18.30;16.90;;;;;;;20.05;100.00;102216.16;2000450;71;30977;-75
2022/07/14 07:53:29;;;;;;;14.07;13.17;;;;;;;21.55;100.00;102211.25;2018504;71;31358;-75
2022/07/14 07:59:15;;;;;;;12.47;11.80;;;;;;;21.75;100.00;102206.41;2008046;71;31008;-76
2022/07/14 08:04:59;;;;;;;11.10;10.50;;;;;;;21.55;100.00;102204.77;2015044;71;30987;-75
2022/07/14 08:10:44;;;;;;;12.13;11.07;;;;;;;22.33;100.00;102202.41;2001013;71;31323;-73
2022/07/14 08:16:31;;;;;;;11.27;10.67;;;;;;;22.12;100.00;102205.63;2008161;71;31377;-75
2022/07/14 08:22:18;;;;;;;11.20;10.50;;;;;;;22.25;100.00;102206.03;2006497;71;31346;-73
2022/07/14 08:28:02;;;;;;;11.10;10.40;;;;;;;22.56;100.00;102186.90;2004155;71;31015;-74
2022/07/14 08:33:45;;;;;;;10.82;10.30;;;;;;;22.76;100.00;102201.59;2006354;71;30816;-74
2022/07/14 08:39:30;;;;;;;10.83;10.13;;;;;;;22.96;100.00;102194.63;2007798;71;30871;-75
2022/07/14 08:45:18;;;;;;;10.43;9.83;;;;;;;23.17;100.00;102196.74;2000081;71;30945;-73
2022/07/14 08:51:13;;;;;;;10.70;10.20;;;;;;;23.32;100.00;102197.02;2061211;69;30629;-73
2022/07/14 08:54:01;;;;;;;10.10;9.50;;;;;;;23.27;100.00;102203.47;2020000;70;24128;-74
2022/07/14 08:59:54;;;;;;;10.60;9.90;;;;;;;23.26;100.00;102204.05;2013672;70;24229;-74
2022/07/14 09:02:59;;;;;;;10.40;9.70;;;;;;;23.23;100.00;102203.33;1975218;72;24202;-74
2022/07/14 09:05:30;;;;;;;11.05;10.28;;;;;;;23.30;100.00;102200.79;1934112;73;24276;-73
2022/07/14 09:21:25;;;;;;;11.03;10.53;;;;;;;23.50;100.00;102190.14;2018477;70;24415;-73
2022/07/14 09:24:14;;;;;;;11.83;10.85;;;;;;;23.45;100.00;102192.32;2015882;70;24173;-73
2022/07/14 09:27:02;;;;;;;10.58;9.93;;;;;;;23.45;100.00;102189.48;2012162;70;24705;-75
2022/07/14 09:35:27;;;;;;;9.78;9.35;;;;;;;23.55;100.00;102184.28;1916524;73;24234;-75
2022/07/14 09:44:12;;;;;;;10.05;9.55;;;;;;;23.93;100.00;102180.55;2001340;71;30868;-77
2022/07/14 09:53:30;;;;;;;10.25;9.70;;;;;;;24.17;100.00;102185.62;1967538;72;24712;-76
2022/07/14 10:18:14;;;;;;;10.68;10.08;;;;;;;24.67;100.00;102199.14;2024610;70;25042;-73
2022/07/14 10:20:47;;;;;;;10.60;10.10;;;;;;;24.28;100.00;102196.22;1934664;73;24203;-74
2022/07/14 10:23:18;;;;;;;10.55;10.05;;;;;;;24.43;100.00;102197.00;1965468;72;24151;-73
2022/07/14 10:29:14;;;;;;;9.88;9.48;;;;;;;24.25;100.00;102204.02;1935921;73;26381;-74
2022/07/14 10:38:47;;;;;;;10.20;9.80;;;;;;;24.26;100.00;102204.23;2011719;71;30797;-73
2022/07/14 10:51:21;;;;;;;9.73;9.30;;;;;;;24.10;100.00;102197.48;2007898;71;31332;-75
2022/07/14 10:57:38;;;;;;;10.40;9.90;;;;;;;24.05;100.00;102211.86;2003901;71;30866;-75
2022/07/14 11:31:19;;;;;;;10.75;10.20;;;;;;;24.12;100.00;102219.27;2029976;69;30554;-75
2022/07/14 11:50:19;;;;;;;10.98;10.40;;;;;;;24.25;100.00;102217.38;1995411;71;30814;-75
2022/07/14 11:53:24;;;;;;;11.45;10.65;;;;;;;24.17;100.00;102219.11;1967974;72;24243;-75
2022/07/14 11:56:13;;;;;;;11.20;10.55;;;;;;;24.27;100.00;102219.27;1985830;72;24276;-75
2022/07/14 12:08:39;;;;;;;16.07;15.37;;;;;;;24.37;100.00;102206.92;2012040;70;24135;-74
2022/07/14 12:11:28;;;;;;;17.23;16.48;;;;;;;24.33;100.00;102202.28;1937803;74;24112;-74
2022/07/14 12:14:16;;;;;;;15.18;14.47;;;;;;;24.33;100.00;102206.54;1934712;73;24196;-75
2022/07/14 12:19:53;;;;;;;13.28;12.30;;;;;;;24.38;100.00;102200.66;1934835;73;24161;-73
2022/07/14 12:22:23;;;;;;;11.10;10.50;;;;;;;24.41;100.00;102208.47;1971801;72;24823;-74
2022/07/14 12:28:21;;;;;;;12.65;11.85;;;;;;;24.45;100.00;102205.18;1935906;74;24584;-74
2022/07/14 12:30:53;;;;;;;13.45;12.53;;;;;;;24.36;100.00;102200.16;1919876;74;24167;-75
2022/07/14 12:33:25;;;;;;;12.75;11.85;;;;;;;24.44;100.00;102204.34;1903256;75;24333;-75
2022/07/14 12:35:58;;;;;;;11.65;11.00;;;;;;;24.42;100.00;102208.72;1903895;75;24163;-75
2022/07/14 12:38:30;;;;;;;11.43;10.90;;;;;;;24.46;100.00;102206.27;1891096;76;24131;-74
2022/07/14 12:44:19;;;;;;;11.38;10.68;;;;;;;24.51;100.00;102190.19;2011261;71;31403;-75
2022/07/14 12:50:24;;;;;;;11.80;11.08;;;;;;;24.70;100.00;102201.87;2013051;71;31398;-75
2022/07/14 12:56:10;;;;;;;10.28;9.73;;;;;;;24.58;100.00;102194.12;1994789;71;30965;-75
2022/07/14 13:01:56;;;;;;;11.00;10.45;;;;;;;24.53;100.00;102194.33;2014919;71;30864;-76
2022/07/14 13:07:51;;;;;;;10.90;10.30;;;;;;;24.73;100.00;102183.52;2016805;71;30978;-74
2022/07/14 13:13:38;;;;;;;10.98;10.38;;;;;;;24.59;100.00;102195.80;2003889;71;31295;-76
2022/07/14 13:19:35;;;;;;;11.25;10.75;;;;;;;24.68;100.00;102184.34;1991737;71;30863;-76
2022/07/14 13:25:28;;;;;;;11.10;10.60;;;;;;;24.71;100.00;102183.05;1998456;71;30820;-75
2022/07/14 13:31:18;;;;;;;11.25;10.72;;;;;;;24.98;100.00;102180.23;2014850;71;30888;-76
2022/07/14 13:37:04;;;;;;;10.82;10.23;;;;;;;24.99;100.00;102179.02;1991478;71;30867;-76
2022/07/14 13:42:49;;;;;;;11.73;11.08;;;;;;;24.93;100.00;102177.02;1991869;71;30905;-75
2022/07/14 13:54:46;;;;;;;11.73;11.12;;;;;;;24.86;100.00;102176.73;2014943;71;30901;-75
2022/07/14 14:00:31;;;;;;;11.33;10.63;;;;;;;24.80;100.00;102180.96;2013128;71;30874;-72
2022/07/14 14:06:15;;;;;;;10.98;10.40;;;;;;;24.70;100.00;102192.75;2016721;71;30875;-75
2022/07/14 14:12:02;;;;;;;11.00;10.43;;;;;;;24.70;100.00;102189.08;2016804;71;31431;-77
2022/07/14 14:17:46;;;;;;;11.63;10.93;;;;;;;24.86;100.00;102187.27;2002775;71;31264;-73
2022/07/14 14:23:34;;;;;;;11.57;10.90;;;;;;;24.96;100.00;102189.69;2011668;71;30810;-75
2022/07/14 14:29:20;;;;;;;11.43;10.90;;;;;;;24.92;100.00;102198.67;1997097;71;30846;-75
2022/07/14 14:35:06;;;;;;;11.60;10.80;;;;;;;24.82;100.00;102201.32;2015015;71;31481;-76
2022/07/14 14:40:51;;;;;;;11.05;10.53;;;;;;;24.79;100.00;102209.72;2009433;71;31377;-76
2022/07/14 14:46:35;;;;;;;11.57;10.98;;;;;;;24.90;100.00;102206.73;2016550;71;30895;-75
2022/07/14 14:52:20;;;;;;;11.50;10.70;;;;;;;24.76;100.00;102218.38;2004343;71;30820;-76
2022/07/14 14:58:06;;;;;;;12.33;11.60;;;;;;;24.77;100.00;102224.89;2006138;71;30881;-75
2022/07/14 15:03:50;;;;;;;12.30;11.53;;;;;;;24.79;100.00;102228.20;2009646;71;30872;-72
2022/07/14 15:09:35;;;;;;;12.43;11.48;;;;;;;24.67;100.00;102219.03;2018407;71;30899;-76
2022/07/14 15:15:19;;;;;;;11.75;11.05;;;;;;;24.81;100.00;102225.27;1997118;71;31428;-74
2022/07/14 15:21:04;;;;;;;12.43;11.43;;;;;;;25.00;100.00;102219.07;2011532;71;31361;-74
2022/07/14 15:26:49;;;;;;;12.03;11.33;;;;;;;25.12;100.00;102230.48;2015151;71;31028;-75
2022/07/14 15:42:16;;;;;;;12.30;11.33;;;;;;;24.83;100.00;102227.16;2007318;71;30859;-77
2022/07/14 15:48:01;;;;;;;11.75;11.15;;;;;;;24.93;100.00;102227.35;2001036;71;31354;-75
2022/07/14 15:53:47;;;;;;;11.80;11.03;;;;;;;24.97;100.00;102224.63;2017476;71;30920;-76
2022/07/14 15:59:32;;;;;;;11.65;10.93;;;;;;;24.49;100.00;102228.30;2011642;71;31483;-79
2022/07/14 16:05:16;;;;;;;13.00;12.00;;;;;;;24.79;100.00;102211.98;2007868;71;31435;-75
2022/07/14 16:11:00;;;;;;;11.43;10.63;;;;;;;24.93;100.00;102220.25;1997177;71;31298;-73
2022/07/14 16:16:47;;;;;;;11.93;11.12;;;;;;;24.93;100.00;102216.81;2000366;71;30886;-74
2022/07/14 16:22:31;;;;;;;12.10;11.30;;;;;;;24.99;100.00;102220.87;2011869;71;31335;-75
2022/07/14 16:28:16;;;;;;;10.45;9.78;;;;;;;24.34;100.00;102114.48;2002572;70;30870;-74
2022/07/14 16:34:01;;;;;;;11.80;11.10;;;;;;;24.59;100.00;102219.11;1997252;71;30808;-75
2022/07/14 16:39:47;;;;;;;12.53;11.50;;;;;;;24.68;100.00;102226.98;2002635;71;31396;-73
2022/07/14 16:45:32;;;;;;;11.57;10.65;;;;;;;24.88;100.00;102221.88;2007942;71;30810;-75
2022/07/14 16:51:17;;;;;;;12.20;11.00;;;;;;;25.00;100.00;102214.80;2014896;71;30948;-75
2022/07/14 16:57:02;;;;;;;12.28;11.45;;;;;;;24.04;100.00;102219.58;2006323;71;30921;-73
2022/07/14 17:02:47;;;;;;;11.83;11.03;;;;;;;23.61;100.00;102222.39;2010406;71;30821;-80
2022/07/14 17:08:31;;;;;;;11.75;10.98;;;;;;;23.82;100.00;102219.87;2011410;71;30872;-74
2022/07/14 17:14:16;;;;;;;11.30;10.70;;;;;;;24.04;100.00;102224.42;2012778;71;30893;-74
2022/07/14 17:20:00;;;;;;;11.63;10.82;;;;;;;24.02;100.00;102229.59;2016538;71;31399;-74
2022/07/14 17:25:47;;;;;;;11.55;10.82;;;;;;;23.96;100.00;102229.56;2016805;71;31395;-74
2022/07/14 17:31:31;;;;;;;11.38;10.75;;;;;;;23.96;100.00;102232.41;2005640;71;31533;-74
2022/07/14 17:37:16;;;;;;;11.83;10.93;;;;;;;24.03;100.00;102236.36;2011960;71;31447;-73
2022/07/14 17:43:01;;;;;;;15.28;12.78;;;;;;;24.41;100.00;102241.98;2006318;71;30892;-73
2022/07/14 17:48:47;;;;;;;11.45;10.75;;;;;;;24.00;100.00;102239.06;2013435;71;30975;-74
2022/07/14 17:54:32;;;;;;;11.20;10.28;;;;;;;24.09;100.00;102240.42;2018391;71;31144;-73
2022/07/14 18:00:21;;;;;;;10.50;9.88;;;;;;;24.02;100.00;102252.30;2000266;71;30892;-73
2022/07/14 18:06:05;;;;;;;11.00;10.15;;;;;;;23.89;100.00;102249.95;2011070;71;30923;-73
2022/07/14 18:11:50;;;;;;;10.35;9.75;;;;;;;23.89;100.00;102253.37;2016739;71;30946;-74
2022/07/14 18:17:35;;;;;;;10.63;9.83;;;;;;;23.84;100.00;102253.56;2000715;71;30804;-74
2022/07/14 18:23:20;;;;;;;11.15;10.55;;;;;;;23.53;100.00;102261.78;2007771;71;31014;-75
2022/07/14 18:29:05;;;;;;;10.78;10.18;;;;;;;23.67;100.00;102269.25;1991436;71;30866;-74
2022/07/14 18:34:49;;;;;;;11.25;10.50;;;;;;;23.77;100.00;102270.30;2002049;71;31071;-75
2022/07/14 18:40:34;;;;;;;10.38;9.88;;;;;;;23.72;100.00;102276.16;2002661;71;30937;-74
2022/07/14 18:46:18;;;;;;;10.25;9.75;;;;;;;23.67;100.00;102275.76;2016516;71;30870;-72
2022/07/14 18:52:06;;;;;;;10.08;9.58;;;;;;;23.44;100.00;102278.61;1995241;71;31388;-75
2022/07/14 18:57:51;;;;;;;11.20;10.50;;;;;;;23.27;100.00;102282.29;2009981;71;31431;-72
2022/07/14 19:03:37;;;;;;;10.32;9.80;;;;;;;23.00;100.00;102283.48;1995082;71;30819;-71
2022/07/14 19:09:22;;;;;;;10.50;9.98;;;;;;;23.08;100.00;102287.48;2013432;71;31445;-68
2022/07/14 19:15:09;;;;;;;10.45;9.95;;;;;;;22.75;100.00;102289.16;2011144;71;30919;-70
2022/07/14 19:20:53;;;;;;;10.30;9.90;;;;;;;23.20;100.00;102287.62;1999068;71;30897;-73
2022/07/14 19:26:38;;;;;;;10.53;9.98;;;;;;;23.04;100.00;102294.41;2000432;71;31495;-67
2022/07/14 19:32:23;;;;;;;10.10;9.60;;;;;;;22.82;100.00;102303.66;2004401;71;30862;-70
2022/07/14 19:38:07;;;;;;;10.30;9.80;;;;;;;22.66;100.00;102303.29;2011719;71;30995;-70
2022/07/14 19:43:52;;;;;;;9.97;9.47;;;;;;;22.23;100.00;102314.54;2006203;71;32871;-70
2022/07/14 19:49:37;;;;;;;10.28;9.78;;;;;;;22.50;100.00;102317.69;2018473;71;30879;-70
2022/07/14 19:55:23;;;;;;;10.03;9.63;;;;;;;22.12;100.00;102321.67;2016657;71;30981;-69
2022/07/14 20:01:08;;;;;;;10.33;9.83;;;;;;;21.76;100.00;102321.23;2016855;71;30871;-68
2022/07/14 20:06:52;;;;;;;10.10;9.60;;;;;;;21.03;100.00;102328.79;2005732;71;30862;-69
2022/07/14 20:12:37;;;;;;;10.37;9.87;;;;;;;21.17;100.00;102329.61;2013077;71;30911;-68
2022/07/14 20:18:24;;;;;;;10.93;10.23;;;;;;;21.13;100.00;102332.82;2000597;71;30815;-70
2022/07/14 20:24:10;;;;;;;10.70;10.20;;;;;;;20.97;100.00;102341.93;2006324;71;30982;-69
2022/07/14 20:35:56;;;;;;;10.63;10.00;;;;;;;20.67;100.00;102354.20;2000877;71;30860;-71
2022/07/14 20:41:41;;;;;;;10.60;10.10;;;;;;;20.87;100.00;102361.39;2014921;71;30861;-69
2022/07/14 20:47:27;;;;;;;10.50;10.00;;;;;;;20.50;100.00;102371.55;2014785;71;30962;-70
2022/07/14 20:53:14;;;;;;;10.90;10.30;;;;;;;20.69;100.00;102370.84;2000875;71;30847;-71
2022/07/14 20:58:59;;;;;;;10.30;9.83;;;;;;;20.05;100.00;102381.20;2004027;71;30930;-70
2022/07/14 21:04:43;;;;;;;9.80;9.40;;;;;;;19.87;100.00;102387.75;2006266;71;31434;-69
2022/07/14 21:10:27;;;;;;;10.10;9.60;;;;;;;19.87;100.00;102388.59;2008075;71;30786;-69
2022/07/14 21:16:12;;;;;;;10.30;9.80;;;;;;;19.80;100.00;102382.53;2009486;71;30909;-69
2022/07/14 21:21:57;;;;;;;10.17;9.57;;;;;;;19.67;100.00;102388.14;2006198;71;30795;-69
2022/07/14 21:27:41;;;;;;;10.07;9.57;;;;;;;19.55;100.00;102386.63;2014814;71;30930;-68
2022/07/14 21:33:28;;;;;;;9.93;9.50;;;;;;;19.51;100.00;102391.80;2009485;71;30999;-71
2022/07/14 21:39:13;;;;;;;9.97;9.43;;;;;;;19.49;100.00;102398.30;2016742;71;33302;-71
2022/07/14 21:44:58;;;;;;;9.80;9.40;;;;;;;19.46;100.00;102411.05;2015027;71;32951;-71
2022/07/14 21:50:43;;;;;;;10.20;9.50;;;;;;;19.15;100.00;102410.39;2000435;71;30944;-71
2022/07/14 21:56:28;;;;;;;10.03;9.43;;;;;;;19.33;100.00;102408.13;2014951;71;31406;-71
2022/07/14 22:02:13;;;;;;;10.17;9.67;;;;;;;19.24;100.00;102402.36;2008088;71;30846;-71
2022/07/14 22:24:44;;;;;;;10.30;9.40;;;;;;;18.85;100.00;102420.13;1996318;71;30855;-71
2022/07/14 22:27:32;;;;;;;9.70;9.20;;;;;;;18.81;100.00;102422.72;1971941;72;24153;-72
2022/07/14 22:33:18;;;;;;;10.00;9.60;;;;;;;18.73;100.00;102431.84;1950020;72;32978;-71
2022/07/14 22:36:05;;;;;;;10.00;9.50;;;;;;;18.65;100.00;102429.09;1926616;73;26323;-71
2022/07/14 22:41:50;;;;;;;10.23;9.63;;;;;;;18.59;100.00;102429.48;2000773;71;31317;-72
2022/07/14 22:44:38;;;;;;;10.40;9.70;;;;;;;18.37;100.00;102437.59;1967422;72;24162;-71
2022/07/14 22:54:03;;;;;;;10.20;9.60;;;;;;;18.14;100.00;102454.75;1967964;72;24244;-70
2022/07/14 22:59:49;;;;;;;10.27;9.67;;;;;;;17.94;100.00;102447.91;1991342;71;31297;-70
2022/07/14 23:02:37;;;;;;;10.27;9.67;;;;;;;17.87;100.00;102462.88;1959282;72;24156;-70
2022/07/14 23:08:24;;;;;;;10.20;9.70;;;;;;;17.81;100.00;102459.83;1991604;71;31354;-71
2022/07/14 23:17:15;;;;;;;10.00;9.40;;;;;;;17.84;100.00;102465.70;2005466;71;30869;-71
2022/07/14 23:20:02;;;;;;;10.03;9.43;;;;;;;17.84;100.00;102465.70;1975636;72;24223;-71
2022/07/14 23:25:47;;;;;;;10.30;9.70;;;;;;;17.83;100.00;102468.27;2013139;71;32920;-70
2022/07/14 23:28:34;;;;;;;10.33;9.73;;;;;;;17.65;100.00;102467.57;1966119;72;24217;-70
2022/07/14 23:34:20;;;;;;;10.33;9.70;;;;;;;17.61;100.00;102470.69;1991567;71;32809;-70
2022/07/14 23:37:07;;;;;;;10.10;9.60;;;;;;;17.53;100.00;102473.54;1962866;72;24162;-70
2022/07/14 23:42:52;;;;;;;9.97;9.43;;;;;;;17.72;100.00;102470.30;2013032;71;32902;-71
2022/07/14 23:45:40;;;;;;;10.00;9.50;;;;;;;17.47;100.00;102471.89;1970755;72;26661;-71
2022/07/14 23:51:24;;;;;;;10.10;9.50;;;;;;;17.55;100.00;102469.86;2014802;71;32799;-70
2022/07/14 23:54:12;;;;;;;9.70;9.30;;;;;;;17.48;100.00;102477.78;1963579;72;26295;-69
2022/07/14 23:59:57;;;;;;;9.87;9.37;;;;;;;17.44;100.00;102473.88;2016889;71;32938;-70
